sensor_id;sensor_type;location;lat;lon;timestamp;temperature;humidity
15259;DHT22;34462;51.368;12.364;2022-09-27T00:01:11;12.50;99.90
15259;DHT22;34462;51.368;12.364;2022-09-27T00:03:41;12.50;99.90
15259;DHT22;34462;51.368;12.364;2022-09-27T00:06:12;12.50;99.90
15259;DHT22;34462;51.368;12.364;2022-09-27T00:08:43;12.40;99.90
15259;DHT22;34462;51.368;12.364;2022-09-27T00:11:19;12.50;99.90
15259;DHT22;34462;51.368;12.364;2022-09-27T00:13:52;12.50;99.90
15259;DHT22;34462;51.368;12.364;2022-09-27T00:16:22;12.60;99.90
15259;DHT22;34462;51.368;12.364;2022-09-27T00:18:50;12.50;99.90
15259;DHT22;34462;51.368;12.364;2022-09-27T00:21:19;12.50;99.90
15259;DHT22;34462;51.368;12.364;2022-09-27T00:23:48;12.60;99.90
15259;DHT22;34462;51.368;12.364;2022-09-27T00:26:16;12.50;99.90
15259;DHT22;34462;51.368;12.364;2022-09-27T00:28:44;12.50;99.90
15259;DHT22;34462;51.368;12.364;2022-09-27T00:31:18;12.50;99.90
15259;DHT22;34462;51.368;12.364;2022-09-27T00:33:48;12.50;99.90
15259;DHT22;34462;51.368;12.364;2022-09-27T00:36:17;12.50;99.90
15259;DHT22;34462;51.368;12.364;2022-09-27T00:38:48;12.40;99.90
15259;DHT22;34462;51.368;12.364;2022-09-27T00:41:19;12.40;99.90
15259;DHT22;34462;51.368;12.364;2022-09-27T00:43:52;12.30;99.90
15259;DHT22;34462;51.368;12.364;2022-09-27T00:46:27;12.20;99.90
15259;DHT22;34462;51.368;12.364;2022-09-27T00:49:04;12.20;99.90
15259;DHT22;34462;51.368;12.364;2022-09-27T00:51:38;12.10;99.90
15259;DHT22;34462;51.368;12.364;2022-09-27T00:54:12;12.10;99.90
15259;DHT22;34462;51.368;12.364;2022-09-27T00:56:43;12.10;99.90
15259;DHT22;34462;51.368;12.364;2022-09-27T00:59:16;12.20;99.90
15259;DHT22;34462;51.368;12.364;2022-09-27T01:01:48;12.10;99.90
15259;DHT22;34462;51.368;12.364;2022-09-27T01:04:20;12.20;99.90
15259;DHT22;34462;51.368;12.364;2022-09-27T01:06:51;12.30;99.90
15259;DHT22;34462;51.368;12.364;2022-09-27T01:09:21;12.30;99.90
15259;DHT22;34462;51.368;12.364;2022-09-27T01:11:56;12.20;99.90
15259;DHT22;34462;51.368;12.364;2022-09-27T01:14:40;12.10;99.90
15259;DHT22;34462;51.368;12.364;2022-09-27T01:17:31;12.10;99.90
15259;DHT22;34462;51.368;12.364;2022-09-27T01:20:33;12.10;99.90
15259;DHT22;34462;51.368;12.364;2022-09-27T01:23:39;12.00;99.90
15259;DHT22;34462;51.368;12.364;2022-09-27T01:26:37;12.10;99.90
15259;DHT22;34462;51.368;12.364;2022-09-27T01:29:27;12.10;99.90
15259;DHT22;34462;51.368;12.364;2022-09-27T01:32:11;12.10;99.90
15259;DHT22;34462;51.368;12.364;2022-09-27T01:34:47;12.20;99.90
15259;DHT22;34462;51.368;12.364;2022-09-27T01:37:30;12.20;99.90
15259;DHT22;34462;51.368;12.364;2022-09-27T01:40:09;12.10;99.90
15259;DHT22;34462;51.368;12.364;2022-09-27T01:42:49;12.10;99.90
15259;DHT22;34462;51.368;12.364;2022-09-27T01:45:28;12.10;99.90
15259;DHT22;34462;51.368;12.364;2022-09-27T01:48:07;12.10;99.90
15259;DHT22;34462;51.368;12.364;2022-09-27T01:50:41;12.10;99.90
15259;DHT22;34462;51.368;12.364;2022-09-27T01:53:17;12.10;99.90
15259;DHT22;34462;51.368;12.364;2022-09-27T01:55:50;12.10;99.90
15259;DHT22;34462;51.368;12.364;2022-09-27T01:58:25;12.10;99.90
15259;DHT22;34462;51.368;12.364;2022-09-27T02:00:58;12.10;99.90
15259;DHT22;34462;51.368;12.364;2022-09-27T02:03:33;12.20;99.90
15259;DHT22;34462;51.368;12.364;2022-09-27T02:06:08;12.20;99.90
15259;DHT22;34462;51.368;12.364;2022-09-27T02:08:42;12.30;99.90
15259;DHT22;34462;51.368;12.364;2022-09-27T02:11:14;12.30;99.90
15259;DHT22;34462;51.368;12.364;2022-09-27T02:13:46;12.30;99.90
15259;DHT22;34462;51.368;12.364;2022-09-27T02:16:22;12.20;99.90
15259;DHT22;34462;51.368;12.364;2022-09-27T02:19:06;12.20;99.90
15259;DHT22;34462;51.368;12.364;2022-09-27T02:21:43;12.20;99.90
15259;DHT22;34462;51.368;12.364;2022-09-27T02:24:36;12.20;99.90
15259;DHT22;34462;51.368;12.364;2022-09-27T02:27:12;12.20;99.90
15259;DHT22;34462;51.368;12.364;2022-09-27T02:29:47;12.20;99.90
15259;DHT22;34462;51.368;12.364;2022-09-27T02:32:21;12.20;99.90
15259;DHT22;34462;51.368;12.364;2022-09-27T02:34:51;12.20;99.90
15259;DHT22;34462;51.368;12.364;2022-09-27T02:37:21;12.30;99.90
15259;DHT22;34462;51.368;12.364;2022-09-27T02:39:49;12.30;99.90
15259;DHT22;34462;51.368;12.364;2022-09-27T02:42:17;12.30;99.90
15259;DHT22;34462;51.368;12.364;2022-09-27T02:44:46;12.30;99.90
15259;DHT22;34462;51.368;12.364;2022-09-27T02:47:32;12.30;99.90
15259;DHT22;34462;51.368;12.364;2022-09-27T02:53:18;12.30;99.90
15259;DHT22;34462;51.368;12.364;2022-09-27T02:56:02;12.20;99.90
15259;DHT22;34462;51.368;12.364;2022-09-27T02:58:49;12.20;99.90
15259;DHT22;34462;51.368;12.364;2022-09-27T03:01:30;12.20;99.90
15259;DHT22;34462;51.368;12.364;2022-09-27T03:04:12;12.20;99.90
15259;DHT22;34462;51.368;12.364;2022-09-27T03:06:47;12.20;99.90
15259;DHT22;34462;51.368;12.364;2022-09-27T03:09:21;12.10;99.90
15259;DHT22;34462;51.368;12.364;2022-09-27T03:11:51;12.10;99.90
15259;DHT22;34462;51.368;12.364;2022-09-27T03:14:19;12.10;99.90
15259;DHT22;34462;51.368;12.364;2022-09-27T03:16:47;12.10;99.90
15259;DHT22;34462;51.368;12.364;2022-09-27T03:19:15;12.00;99.90
15259;DHT22;34462;51.368;12.364;2022-09-27T03:21:44;12.00;99.90
15259;DHT22;34462;51.368;12.364;2022-09-27T03:24:13;11.90;99.90
15259;DHT22;34462;51.368;12.364;2022-09-27T03:26:41;11.90;99.90
15259;DHT22;34462;51.368;12.364;2022-09-27T03:29:09;11.90;99.90
15259;DHT22;34462;51.368;12.364;2022-09-27T03:31:37;11.90;99.90
15259;DHT22;34462;51.368;12.364;2022-09-27T03:34:05;11.90;99.90
15259;DHT22;34462;51.368;12.364;2022-09-27T03:36:33;11.90;99.90
15259;DHT22;34462;51.368;12.364;2022-09-27T03:39:03;11.80;99.90
15259;DHT22;34462;51.368;12.364;2022-09-27T03:41:31;11.80;99.90
15259;DHT22;34462;51.368;12.364;2022-09-27T03:43:59;11.70;99.90
15259;DHT22;34462;51.368;12.364;2022-09-27T03:46:28;11.60;99.90
15259;DHT22;34462;51.368;12.364;2022-09-27T03:48:56;11.60;99.90
15259;DHT22;34462;51.368;12.364;2022-09-27T03:51:24;11.40;99.90
15259;DHT22;34462;51.368;12.364;2022-09-27T03:53:52;11.50;99.90
15259;DHT22;34462;51.368;12.364;2022-09-27T03:56:22;11.40;99.90
15259;DHT22;34462;51.368;12.364;2022-09-27T03:58:50;11.30;99.90
15259;DHT22;34462;51.368;12.364;2022-09-27T04:01:18;11.30;99.90
15259;DHT22;34462;51.368;12.364;2022-09-27T04:03:47;11.20;99.90
15259;DHT22;34462;51.368;12.364;2022-09-27T04:06:15;11.20;99.90
15259;DHT22;34462;51.368;12.364;2022-09-27T04:08:44;11.10;99.90
15259;DHT22;34462;51.368;12.364;2022-09-27T04:11:13;11.10;99.90
15259;DHT22;34462;51.368;12.364;2022-09-27T04:13:42;11.10;99.90
15259;DHT22;34462;51.368;12.364;2022-09-27T04:16:11;11.00;99.90
15259;DHT22;34462;51.368;12.364;2022-09-27T04:18:39;11.00;99.90
15259;DHT22;34462;51.368;12.364;2022-09-27T04:21:07;11.00;99.90
15259;DHT22;34462;51.368;12.364;2022-09-27T04:23:35;11.00;99.90
15259;DHT22;34462;51.368;12.364;2022-09-27T04:26:04;11.00;99.90
15259;DHT22;34462;51.368;12.364;2022-09-27T04:28:32;10.90;99.90
15259;DHT22;34462;51.368;12.364;2022-09-27T04:31:02;10.90;99.90
15259;DHT22;34462;51.368;12.364;2022-09-27T04:33:30;11.00;99.90
15259;DHT22;34462;51.368;12.364;2022-09-27T04:35:59;11.00;99.90
15259;DHT22;34462;51.368;12.364;2022-09-27T04:38:44;10.90;99.90
15259;DHT22;34462;51.368;12.364;2022-09-27T04:41:13;10.90;99.90
15259;DHT22;34462;51.368;12.364;2022-09-27T04:43:41;10.90;99.90
15259;DHT22;34462;51.368;12.364;2022-09-27T04:46:11;10.90;99.90
15259;DHT22;34462;51.368;12.364;2022-09-27T04:48:39;10.90;99.90
15259;DHT22;34462;51.368;12.364;2022-09-27T04:51:08;10.90;99.90
15259;DHT22;34462;51.368;12.364;2022-09-27T04:53:37;10.80;99.90
15259;DHT22;34462;51.368;12.364;2022-09-27T04:56:05;10.80;99.90
15259;DHT22;34462;51.368;12.364;2022-09-27T04:58:33;10.90;99.90
15259;DHT22;34462;51.368;12.364;2022-09-27T05:01:02;10.90;99.90
15259;DHT22;34462;51.368;12.364;2022-09-27T05:03:32;10.80;99.90
15259;DHT22;34462;51.368;12.364;2022-09-27T05:06:01;10.80;99.90
15259;DHT22;34462;51.368;12.364;2022-09-27T05:08:29;10.80;99.90
15259;DHT22;34462;51.368;12.364;2022-09-27T05:10:57;10.80;99.90
15259;DHT22;34462;51.368;12.364;2022-09-27T05:13:25;10.80;99.90
15259;DHT22;34462;51.368;12.364;2022-09-27T05:15:53;10.80;99.90
15259;DHT22;34462;51.368;12.364;2022-09-27T05:18:21;10.80;99.90
15259;DHT22;34462;51.368;12.364;2022-09-27T05:20:52;10.80;99.90
15259;DHT22;34462;51.368;12.364;2022-09-27T05:23:22;10.80;99.90
15259;DHT22;34462;51.368;12.364;2022-09-27T05:25:50;10.80;99.90
15259;DHT22;34462;51.368;12.364;2022-09-27T05:28:21;10.80;99.90
15259;DHT22;34462;51.368;12.364;2022-09-27T05:30:49;10.80;99.90
15259;DHT22;34462;51.368;12.364;2022-09-27T05:33:18;10.90;99.90
15259;DHT22;34462;51.368;12.364;2022-09-27T05:35:52;10.90;99.90
15259;DHT22;34462;51.368;12.364;2022-09-27T05:38:20;10.90;99.90
15259;DHT22;34462;51.368;12.364;2022-09-27T05:40:49;10.90;99.90
15259;DHT22;34462;51.368;12.364;2022-09-27T05:43:17;11.00;99.90
15259;DHT22;34462;51.368;12.364;2022-09-27T05:45:47;11.00;99.90
15259;DHT22;34462;51.368;12.364;2022-09-27T05:48:16;11.10;99.90
15259;DHT22;34462;51.368;12.364;2022-09-27T05:50:44;11.10;99.90
15259;DHT22;34462;51.368;12.364;2022-09-27T05:53:13;11.20;99.90
15259;DHT22;34462;51.368;12.364;2022-09-27T05:55:42;11.20;99.90
15259;DHT22;34462;51.368;12.364;2022-09-27T05:58:10;11.20;99.90
15259;DHT22;34462;51.368;12.364;2022-09-27T06:00:39;11.30;99.90
15259;DHT22;34462;51.368;12.364;2022-09-27T06:03:07;11.40;99.90
15259;DHT22;34462;51.368;12.364;2022-09-27T06:05:39;11.40;99.90
15259;DHT22;34462;51.368;12.364;2022-09-27T06:08:10;11.40;99.90
15259;DHT22;34462;51.368;12.364;2022-09-27T06:10:41;11.40;99.90
15259;DHT22;34462;51.368;12.364;2022-09-27T06:13:10;11.40;99.90
15259;DHT22;34462;51.368;12.364;2022-09-27T06:15:43;11.40;99.90
15259;DHT22;34462;51.368;12.364;2022-09-27T06:18:14;11.40;99.90
15259;DHT22;34462;51.368;12.364;2022-09-27T06:20:44;11.50;99.90
15259;DHT22;34462;51.368;12.364;2022-09-27T06:23:13;11.50;99.90
15259;DHT22;34462;51.368;12.364;2022-09-27T06:25:44;11.50;99.90
15259;DHT22;34462;51.368;12.364;2022-09-27T06:28:14;11.60;99.90
15259;DHT22;34462;51.368;12.364;2022-09-27T06:30:44;11.50;99.90
15259;DHT22;34462;51.368;12.364;2022-09-27T06:33:15;11.50;99.90
15259;DHT22;34462;51.368;12.364;2022-09-27T06:35:45;11.50;99.90
15259;DHT22;34462;51.368;12.364;2022-09-27T06:38:16;11.50;99.90
15259;DHT22;34462;51.368;12.364;2022-09-27T06:40:48;11.50;99.90
15259;DHT22;34462;51.368;12.364;2022-09-27T06:43:19;11.50;99.90
15259;DHT22;34462;51.368;12.364;2022-09-27T06:45:47;11.40;99.90
15259;DHT22;34462;51.368;12.364;2022-09-27T06:48:16;11.40;99.90
15259;DHT22;34462;51.368;12.364;2022-09-27T06:50:45;11.40;99.90
15259;DHT22;34462;51.368;12.364;2022-09-27T06:53:15;11.40;99.90
15259;DHT22;34462;51.368;12.364;2022-09-27T06:55:43;11.40;99.90
15259;DHT22;34462;51.368;12.364;2022-09-27T06:58:13;11.50;99.90
15259;DHT22;34462;51.368;12.364;2022-09-27T07:00:58;11.50;99.90
15259;DHT22;34462;51.368;12.364;2022-09-27T07:03:27;11.50;99.90
15259;DHT22;34462;51.368;12.364;2022-09-27T07:06:10;11.60;99.90
15259;DHT22;34462;51.368;12.364;2022-09-27T07:08:43;11.60;99.90
15259;DHT22;34462;51.368;12.364;2022-09-27T07:11:11;11.70;99.90
15259;DHT22;34462;51.368;12.364;2022-09-27T07:13:42;11.80;99.90
15259;DHT22;34462;51.368;12.364;2022-09-27T07:16:11;11.90;99.90
15259;DHT22;34462;51.368;12.364;2022-09-27T07:18:40;12.00;99.90
15259;DHT22;34462;51.368;12.364;2022-09-27T07:21:09;12.10;99.90
15259;DHT22;34462;51.368;12.364;2022-09-27T07:23:38;12.20;99.90
15259;DHT22;34462;51.368;12.364;2022-09-27T07:26:06;12.20;99.90
15259;DHT22;34462;51.368;12.364;2022-09-27T07:28:36;12.30;99.90
15259;DHT22;34462;51.368;12.364;2022-09-27T07:31:08;12.40;99.90
15259;DHT22;34462;51.368;12.364;2022-09-27T07:33:37;12.60;99.90
15259;DHT22;34462;51.368;12.364;2022-09-27T07:36:10;12.60;99.90
15259;DHT22;34462;51.368;12.364;2022-09-27T07:38:39;12.70;99.90
15259;DHT22;34462;51.368;12.364;2022-09-27T07:41:08;12.70;99.90
15259;DHT22;34462;51.368;12.364;2022-09-27T07:43:39;12.80;99.90
15259;DHT22;34462;51.368;12.364;2022-09-27T07:46:09;12.80;99.90
15259;DHT22;34462;51.368;12.364;2022-09-27T07:48:39;12.90;99.90
15259;DHT22;34462;51.368;12.364;2022-09-27T07:51:07;12.80;99.90
15259;DHT22;34462;51.368;12.364;2022-09-27T07:53:37;12.80;99.90
15259;DHT22;34462;51.368;12.364;2022-09-27T07:56:06;12.80;99.90
15259;DHT22;34462;51.368;12.364;2022-09-27T07:58:34;12.90;99.90
15259;DHT22;34462;51.368;12.364;2022-09-27T08:01:02;13.10;99.90
15259;DHT22;34462;51.368;12.364;2022-09-27T08:03:32;13.10;99.90
15259;DHT22;34462;51.368;12.364;2022-09-27T08:06:01;13.20;99.90
15259;DHT22;34462;51.368;12.364;2022-09-27T08:08:30;13.30;99.90
15259;DHT22;34462;51.368;12.364;2022-09-27T08:10:58;13.30;99.90
15259;DHT22;34462;51.368;12.364;2022-09-27T08:13:27;13.40;99.90
15259;DHT22;34462;51.368;12.364;2022-09-27T08:16:00;13.50;99.90
15259;DHT22;34462;51.368;12.364;2022-09-27T08:18:29;13.60;99.90
15259;DHT22;34462;51.368;12.364;2022-09-27T08:20:59;13.80;99.90
15259;DHT22;34462;51.368;12.364;2022-09-27T08:23:27;13.80;99.90
15259;DHT22;34462;51.368;12.364;2022-09-27T08:25:56;13.80;99.90
15259;DHT22;34462;51.368;12.364;2022-09-27T08:28:25;14.00;99.90
15259;DHT22;34462;51.368;12.364;2022-09-27T08:30:56;13.90;99.90
15259;DHT22;34462;51.368;12.364;2022-09-27T08:33:25;13.70;99.90
15259;DHT22;34462;51.368;12.364;2022-09-27T08:36:00;13.60;99.90
15259;DHT22;34462;51.368;12.364;2022-09-27T08:38:29;13.50;99.90
15259;DHT22;34462;51.368;12.364;2022-09-27T08:40:59;13.20;99.90
15259;DHT22;34462;51.368;12.364;2022-09-27T08:43:40;12.90;99.90
15259;DHT22;34462;51.368;12.364;2022-09-27T08:46:24;12.70;99.90
15259;DHT22;34462;51.368;12.364;2022-09-27T08:49:02;12.70;99.90
15259;DHT22;34462;51.368;12.364;2022-09-27T08:51:35;12.70;99.90
15259;DHT22;34462;51.368;12.364;2022-09-27T08:54:07;12.60;99.90
15259;DHT22;34462;51.368;12.364;2022-09-27T08:56:41;12.60;99.90
15259;DHT22;34462;51.368;12.364;2022-09-27T08:59:12;12.30;99.90
15259;DHT22;34462;51.368;12.364;2022-09-27T09:01:47;12.20;99.90
15259;DHT22;34462;51.368;12.364;2022-09-27T09:04:23;12.10;99.90
15259;DHT22;34462;51.368;12.364;2022-09-27T09:07:03;11.90;99.90
15259;DHT22;34462;51.368;12.364;2022-09-27T09:09:47;11.90;99.90
15259;DHT22;34462;51.368;12.364;2022-09-27T09:12:32;11.90;99.90
15259;DHT22;34462;51.368;12.364;2022-09-27T09:15:21;11.90;99.90
15259;DHT22;34462;51.368;12.364;2022-09-27T09:18:14;12.00;99.90
15259;DHT22;34462;51.368;12.364;2022-09-27T09:20:56;12.10;99.90
15259;DHT22;34462;51.368;12.364;2022-09-27T09:23:51;12.10;99.90
15259;DHT22;34462;51.368;12.364;2022-09-27T09:26:35;12.20;99.90
15259;DHT22;34462;51.368;12.364;2022-09-27T09:29:18;12.50;99.90
15259;DHT22;34462;51.368;12.364;2022-09-27T09:31:58;12.60;99.90
15259;DHT22;34462;51.368;12.364;2022-09-27T09:34:38;12.70;99.90
15259;DHT22;34462;51.368;12.364;2022-09-27T09:37:13;12.80;99.90
15259;DHT22;34462;51.368;12.364;2022-09-27T09:39:51;12.80;99.90
15259;DHT22;34462;51.368;12.364;2022-09-27T09:42:25;12.70;99.90
15259;DHT22;34462;51.368;12.364;2022-09-27T09:45:00;12.70;99.90
15259;DHT22;34462;51.368;12.364;2022-09-27T09:47:35;12.60;99.90
15259;DHT22;34462;51.368;12.364;2022-09-27T09:50:16;12.50;99.90
15259;DHT22;34462;51.368;12.364;2022-09-27T09:52:50;12.40;99.90
15259;DHT22;34462;51.368;12.364;2022-09-27T09:55:26;12.20;99.90
15259;DHT22;34462;51.368;12.364;2022-09-27T09:58:04;12.10;99.90
15259;DHT22;34462;51.368;12.364;2022-09-27T10:00:45;12.00;99.90
15259;DHT22;34462;51.368;12.364;2022-09-27T10:03:16;11.90;99.90
15259;DHT22;34462;51.368;12.364;2022-09-27T10:05:45;11.80;99.90
15259;DHT22;34462;51.368;12.364;2022-09-27T10:08:18;11.90;99.90
15259;DHT22;34462;51.368;12.364;2022-09-27T10:10:49;11.90;99.90
15259;DHT22;34462;51.368;12.364;2022-09-27T10:13:18;12.10;99.90
15259;DHT22;34462;51.368;12.364;2022-09-27T10:15:53;12.40;99.90
15259;DHT22;34462;51.368;12.364;2022-09-27T10:18:26;12.60;99.90
15259;DHT22;34462;51.368;12.364;2022-09-27T10:20:57;12.70;99.90
15259;DHT22;34462;51.368;12.364;2022-09-27T10:23:27;12.80;99.90
15259;DHT22;34462;51.368;12.364;2022-09-27T10:26:00;12.90;99.90
15259;DHT22;34462;51.368;12.364;2022-09-27T10:28:35;13.10;99.90
15259;DHT22;34462;51.368;12.364;2022-09-27T10:31:08;12.90;99.90
15259;DHT22;34462;51.368;12.364;2022-09-27T10:33:50;12.80;99.90
15259;DHT22;34462;51.368;12.364;2022-09-27T10:36:23;12.60;99.90
15259;DHT22;34462;51.368;12.364;2022-09-27T10:38:54;12.50;99.90
15259;DHT22;34462;51.368;12.364;2022-09-27T10:41:30;12.40;99.90
15259;DHT22;34462;51.368;12.364;2022-09-27T10:44:20;12.30;99.90
15259;DHT22;34462;51.368;12.364;2022-09-27T10:46:53;12.40;99.90
15259;DHT22;34462;51.368;12.364;2022-09-27T10:49:27;12.40;99.90
15259;DHT22;34462;51.368;12.364;2022-09-27T10:51:59;12.40;99.90
15259;DHT22;34462;51.368;12.364;2022-09-27T10:54:32;12.60;99.90
15259;DHT22;34462;51.368;12.364;2022-09-27T10:57:05;12.70;99.90
15259;DHT22;34462;51.368;12.364;2022-09-27T10:59:50;12.90;99.90
15259;DHT22;34462;51.368;12.364;2022-09-27T11:02:23;13.00;99.90
15259;DHT22;34462;51.368;12.364;2022-09-27T11:05:04;12.80;99.90
15259;DHT22;34462;51.368;12.364;2022-09-27T11:07:48;12.70;99.90
15259;DHT22;34462;51.368;12.364;2022-09-27T11:10:24;12.70;99.90
15259;DHT22;34462;51.368;12.364;2022-09-27T11:13:16;12.90;99.90
15259;DHT22;34462;51.368;12.364;2022-09-27T11:16:02;13.20;99.90
15259;DHT22;34462;51.368;12.364;2022-09-27T11:18:44;13.50;99.90
15259;DHT22;34462;51.368;12.364;2022-09-27T11:21:28;13.90;99.90
15259;DHT22;34462;51.368;12.364;2022-09-27T11:24:15;14.00;99.90
15259;DHT22;34462;51.368;12.364;2022-09-27T11:26:59;14.10;99.90
15259;DHT22;34462;51.368;12.364;2022-09-27T11:29:45;14.30;99.90
15259;DHT22;34462;51.368;12.364;2022-09-27T11:32:36;14.50;99.90
15259;DHT22;34462;51.368;12.364;2022-09-27T11:35:37;14.70;99.90
15259;DHT22;34462;51.368;12.364;2022-09-27T11:38:22;14.50;99.90
15259;DHT22;34462;51.368;12.364;2022-09-27T11:44:37;13.70;99.90
15259;DHT22;34462;51.368;12.364;2022-09-27T11:47:44;13.40;99.90
15259;DHT22;34462;51.368;12.364;2022-09-27T11:53:57;13.00;99.90
15259;DHT22;34462;51.368;12.364;2022-09-27T11:56:45;13.00;99.90
15259;DHT22;34462;51.368;12.364;2022-09-27T11:59:33;13.00;99.90
15259;DHT22;34462;51.368;12.364;2022-09-27T12:02:37;13.00;99.90
15259;DHT22;34462;51.368;12.364;2022-09-27T12:05:32;13.00;99.90
15259;DHT22;34462;51.368;12.364;2022-09-27T12:08:20;12.90;99.90
15259;DHT22;34462;51.368;12.364;2022-09-27T12:11:02;13.00;99.90
15259;DHT22;34462;51.368;12.364;2022-09-27T12:13:41;13.10;99.90
15259;DHT22;34462;51.368;12.364;2022-09-27T12:16:14;13.20;99.90
15259;DHT22;34462;51.368;12.364;2022-09-27T12:18:45;13.30;99.90
15259;DHT22;34462;51.368;12.364;2022-09-27T12:21:18;13.40;99.90
15259;DHT22;34462;51.368;12.364;2022-09-27T12:23:49;13.70;99.90
15259;DHT22;34462;51.368;12.364;2022-09-27T12:26:26;13.80;99.90
15259;DHT22;34462;51.368;12.364;2022-09-27T12:29:08;14.00;99.90
15259;DHT22;34462;51.368;12.364;2022-09-27T12:31:46;14.00;99.90
15259;DHT22;34462;51.368;12.364;2022-09-27T12:34:23;14.20;99.90
15259;DHT22;34462;51.368;12.364;2022-09-27T12:37:02;14.20;99.90
15259;DHT22;34462;51.368;12.364;2022-09-27T12:39:41;14.30;99.90
15259;DHT22;34462;51.368;12.364;2022-09-27T12:42:19;14.10;99.90
15259;DHT22;34462;51.368;12.364;2022-09-27T12:44:51;14.10;99.90
15259;DHT22;34462;51.368;12.364;2022-09-27T12:47:33;14.00;99.90
15259;DHT22;34462;51.368;12.364;2022-09-27T12:50:16;14.00;99.90
15259;DHT22;34462;51.368;12.364;2022-09-27T12:53:00;14.10;99.90
15259;DHT22;34462;51.368;12.364;2022-09-27T12:55:50;14.20;99.90
15259;DHT22;34462;51.368;12.364;2022-09-27T13:02:02;14.60;99.90
15259;DHT22;34462;51.368;12.364;2022-09-27T13:08:02;14.70;99.90
15259;DHT22;34462;51.368;12.364;2022-09-27T13:10:51;14.80;99.90
15259;DHT22;34462;51.368;12.364;2022-09-27T13:13:27;15.00;99.90
15259;DHT22;34462;51.368;12.364;2022-09-27T13:16:02;15.30;99.90
15259;DHT22;34462;51.368;12.364;2022-09-27T13:18:49;15.50;99.90
15259;DHT22;34462;51.368;12.364;2022-09-27T13:21:54;15.60;99.90
15259;DHT22;34462;51.368;12.364;2022-09-27T13:24:39;15.40;99.90
15259;DHT22;34462;51.368;12.364;2022-09-27T13:27:38;15.10;99.90
15259;DHT22;34462;51.368;12.364;2022-09-27T13:33:38;14.80;99.90
15259;DHT22;34462;51.368;12.364;2022-09-27T13:36:29;14.60;99.90
15259;DHT22;34462;51.368;12.364;2022-09-27T13:39:17;14.80;99.90
15259;DHT22;34462;51.368;12.364;2022-09-27T13:41:58;15.10;99.90
15259;DHT22;34462;51.368;12.364;2022-09-27T13:44:48;15.20;99.90
15259;DHT22;34462;51.368;12.364;2022-09-27T13:47:31;15.20;99.90
15259;DHT22;34462;51.368;12.364;2022-09-27T13:50:16;15.30;99.90
15259;DHT22;34462;51.368;12.364;2022-09-27T13:52:59;15.40;99.90
15259;DHT22;34462;51.368;12.364;2022-09-27T13:55:47;15.50;99.90
15259;DHT22;34462;51.368;12.364;2022-09-27T13:58:32;15.60;99.90
15259;DHT22;34462;51.368;12.364;2022-09-27T14:01:17;15.60;99.90
15259;DHT22;34462;51.368;12.364;2022-09-27T14:03:52;15.60;99.90
15259;DHT22;34462;51.368;12.364;2022-09-27T14:06:25;15.40;99.90
15259;DHT22;34462;51.368;12.364;2022-09-27T14:09:02;15.30;99.90
15259;DHT22;34462;51.368;12.364;2022-09-27T14:11:36;15.10;99.90
15259;DHT22;34462;51.368;12.364;2022-09-27T14:14:14;14.90;99.90
15259;DHT22;34462;51.368;12.364;2022-09-27T14:16:44;14.70;99.90
15259;DHT22;34462;51.368;12.364;2022-09-27T14:19:15;14.60;99.90
15259;DHT22;34462;51.368;12.364;2022-09-27T14:21:46;14.40;99.90
15259;DHT22;34462;51.368;12.364;2022-09-27T14:24:27;14.20;99.90
15259;DHT22;34462;51.368;12.364;2022-09-27T14:27:11;13.90;99.90
15259;DHT22;34462;51.368;12.364;2022-09-27T14:29:45;13.60;99.90
15259;DHT22;34462;51.368;12.364;2022-09-27T14:32:17;13.40;99.90
15259;DHT22;34462;51.368;12.364;2022-09-27T14:35:03;13.30;99.90
15259;DHT22;34462;51.368;12.364;2022-09-27T14:37:53;13.10;99.90
15259;DHT22;34462;51.368;12.364;2022-09-27T14:40:21;13.20;99.90
15259;DHT22;34462;51.368;12.364;2022-09-27T14:42:54;13.30;99.90
15259;DHT22;34462;51.368;12.364;2022-09-27T14:45:27;13.50;99.90
15259;DHT22;34462;51.368;12.364;2022-09-27T14:48:17;13.70;99.90
15259;DHT22;34462;51.368;12.364;2022-09-27T14:50:55;14.00;99.90
15259;DHT22;34462;51.368;12.364;2022-09-27T14:53:34;14.20;99.90
15259;DHT22;34462;51.368;12.364;2022-09-27T14:56:10;14.20;99.90
15259;DHT22;34462;51.368;12.364;2022-09-27T14:58:45;14.30;99.90
15259;DHT22;34462;51.368;12.364;2022-09-27T15:01:14;14.30;99.90
15259;DHT22;34462;51.368;12.364;2022-09-27T15:03:44;14.20;99.90
15259;DHT22;34462;51.368;12.364;2022-09-27T15:06:15;14.10;99.90
15259;DHT22;34462;51.368;12.364;2022-09-27T15:08:43;14.00;99.90
15259;DHT22;34462;51.368;12.364;2022-09-27T15:11:15;13.80;99.90
15259;DHT22;34462;51.368;12.364;2022-09-27T15:13:49;13.60;99.90
15259;DHT22;34462;51.368;12.364;2022-09-27T15:16:21;13.50;99.90
15259;DHT22;34462;51.368;12.364;2022-09-27T15:18:58;13.30;99.90
15259;DHT22;34462;51.368;12.364;2022-09-27T15:21:30;13.20;99.90
15259;DHT22;34462;51.368;12.364;2022-09-27T15:24:00;13.10;99.90
15259;DHT22;34462;51.368;12.364;2022-09-27T15:26:35;13.00;99.90
15259;DHT22;34462;51.368;12.364;2022-09-27T15:29:17;12.90;99.90
15259;DHT22;34462;51.368;12.364;2022-09-27T15:31:57;12.90;99.90
15259;DHT22;34462;51.368;12.364;2022-09-27T15:34:27;12.70;99.90
15259;DHT22;34462;51.368;12.364;2022-09-27T15:36:57;12.70;99.90
15259;DHT22;34462;51.368;12.364;2022-09-27T15:39:31;12.70;99.90
15259;DHT22;34462;51.368;12.364;2022-09-27T15:42:04;12.60;99.90
15259;DHT22;34462;51.368;12.364;2022-09-27T15:44:44;12.70;99.90
15259;DHT22;34462;51.368;12.364;2022-09-27T15:47:39;12.50;99.90
15259;DHT22;34462;51.368;12.364;2022-09-27T15:50:32;12.50;99.90
15259;DHT22;34462;51.368;12.364;2022-09-27T15:53:04;12.50;99.90
15259;DHT22;34462;51.368;12.364;2022-09-27T15:55:34;12.40;99.90
15259;DHT22;34462;51.368;12.364;2022-09-27T15:58:12;12.40;99.90
15259;DHT22;34462;51.368;12.364;2022-09-27T16:00:54;12.40;99.90
15259;DHT22;34462;51.368;12.364;2022-09-27T16:03:25;12.30;99.90
15259;DHT22;34462;51.368;12.364;2022-09-27T16:05:55;12.30;99.90
15259;DHT22;34462;51.368;12.364;2022-09-27T16:08:24;12.30;99.90
15259;DHT22;34462;51.368;12.364;2022-09-27T16:10:54;12.30;99.90
15259;DHT22;34462;51.368;12.364;2022-09-27T16:13:24;12.30;99.90
15259;DHT22;34462;51.368;12.364;2022-09-27T16:16:01;12.20;99.90
15259;DHT22;34462;51.368;12.364;2022-09-27T16:18:29;12.20;99.90
15259;DHT22;34462;51.368;12.364;2022-09-27T16:20:58;12.20;99.90
15259;DHT22;34462;51.368;12.364;2022-09-27T16:23:27;12.20;99.90